createdAt,value
2022-08-31T00:01:49.312Z,15.55
2022-08-31T00:04:51.307Z,15.46
2022-08-31T00:07:55.504Z,15.37
2022-08-31T00:10:58.330Z,15.32
2022-08-31T00:14:04.447Z,15.38
2022-08-31T00:17:07.555Z,15.35
2022-08-31T00:20:23.324Z,15.37
2022-08-31T00:23:33.086Z,15.22
2022-08-31T00:26:35.638Z,15.31
2022-08-31T00:29:37.562Z,15.25
2022-08-31T00:32:39.779Z,15.27
2022-08-31T00:35:44.052Z,15.32
2022-08-31T00:38:45.919Z,15.35
2022-08-31T00:41:48.392Z,15.32
2022-08-31T00:44:50.905Z,15.34
2022-08-31T00:47:54.094Z,15.31
2022-08-31T00:50:57.261Z,15.38
2022-08-31T00:53:59.875Z,15.26
2022-08-31T00:57:02.584Z,15.35
2022-08-31T01:00:12.346Z,15.31
2022-08-31T01:03:16.181Z,15.41
2022-08-31T01:06:18.672Z,15.33
2022-08-31T01:09:22.634Z,15.39
2022-08-31T01:12:28.556Z,15.40
2022-08-31T01:15:32.032Z,15.41
2022-08-31T01:18:35.128Z,15.41
2022-08-31T01:21:45.231Z,15.50
2022-08-31T01:24:48.398Z,15.44
2022-08-31T01:27:50.249Z,15.42
2022-08-31T01:31:09.565Z,15.56
2022-08-31T01:34:13.955Z,15.62
2022-08-31T01:37:16.130Z,15.63
2022-08-31T01:40:18.313Z,15.64
2022-08-31T01:43:20.815Z,15.71
2022-08-31T01:46:24.299Z,15.57
2022-08-31T01:49:31.675Z,15.32
2022-08-31T01:52:34.334Z,15.34
2022-08-31T01:55:36.892Z,15.21
2022-08-31T01:58:38.866Z,15.12
2022-08-31T02:02:09.955Z,15.05
2022-08-31T02:05:12.375Z,14.93
2022-08-31T02:08:14.414Z,14.92
2022-08-31T02:11:16.425Z,14.88
2022-08-31T02:14:18.928Z,14.81
2022-08-31T02:17:20.843Z,14.74
2022-08-31T02:20:22.767Z,14.71
2022-08-31T02:23:25.708Z,14.59
2022-08-31T02:26:27.918Z,14.60
2022-08-31T02:29:30.120Z,14.66
2022-08-31T02:32:32.337Z,14.70
2022-08-31T02:35:35.151Z,14.72
2022-08-31T02:38:37.915Z,14.66
2022-08-31T02:41:40.383Z,14.65
2022-08-31T02:44:42.566Z,14.56
2022-08-31T02:47:44.581Z,14.71
2022-08-31T02:51:08.792Z,14.63
2022-08-31T02:54:11.921Z,14.61
2022-08-31T02:57:14.060Z,14.69
2022-08-31T03:00:16.270Z,14.63
2022-08-31T03:03:19.214Z,14.56
2022-08-31T03:06:23.114Z,14.45
2022-08-31T03:09:25.064Z,14.46
2022-08-31T03:12:27.202Z,14.41
2022-08-31T03:15:31.198Z,14.42
2022-08-31T03:18:36.994Z,14.36
2022-08-31T03:21:38.769Z,14.28
2022-08-31T03:24:42.133Z,14.17
2022-08-31T03:27:45.889Z,14.10
2022-08-31T03:30:50.915Z,13.97
2022-08-31T03:33:57.884Z,13.93
2022-08-31T03:37:00.522Z,13.95
2022-08-31T03:40:04.667Z,13.89
2022-08-31T03:43:16.386Z,13.97
2022-08-31T03:46:19.641Z,13.87
2022-08-31T03:49:22.682Z,13.96
2022-08-31T03:52:47.970Z,13.92
2022-08-31T03:56:01.198Z,13.94
2022-08-31T03:59:07.103Z,13.93
2022-08-31T04:02:31.951Z,13.97
2022-08-31T04:05:55.617Z,13.98
2022-08-31T04:09:17.061Z,14.03
2022-08-31T04:12:42.445Z,14.12
2022-08-31T04:16:01.071Z,14.16
2022-08-31T04:19:41.341Z,14.21
2022-08-31T04:23:11.358Z,14.21
2022-08-31T04:26:24.199Z,14.42
2022-08-31T04:29:26.751Z,14.32
2022-08-31T04:32:29.089Z,14.29
2022-08-31T04:35:31.964Z,14.38
2022-08-31T04:38:35.208Z,14.48
2022-08-31T04:41:40.209Z,14.61
2022-08-31T04:44:46.338Z,15.43
2022-08-31T04:47:49.225Z,15.77
2022-08-31T04:50:51.467Z,15.68
2022-08-31T04:53:54.192Z,15.77
2022-08-31T04:56:56.218Z,15.68
2022-08-31T05:00:06.332Z,15.71
2022-08-31T05:03:27.266Z,15.84
2022-08-31T05:06:33.127Z,16.02
2022-08-31T05:09:38.384Z,16.27
2022-08-31T05:12:40.331Z,16.23
2022-08-31T05:15:44.174Z,16.26
2022-08-31T05:18:51.507Z,16.20
2022-08-31T05:21:55.102Z,16.32
2022-08-31T05:24:59.062Z,16.38
2022-08-31T05:28:01.290Z,16.36
2022-08-31T05:31:04.020Z,16.57
2022-08-31T05:34:15.406Z,16.56
2022-08-31T05:37:18.781Z,16.83
2022-08-31T05:40:21.390Z,16.89
2022-08-31T05:43:23.637Z,16.99
2022-08-31T05:46:26.051Z,17.06
2022-08-31T05:49:28.808Z,17.05
2022-08-31T05:52:31.161Z,17.11
2022-08-31T05:55:34.102Z,17.24
2022-08-31T05:58:37.933Z,17.34
2022-08-31T06:01:41.616Z,17.65
2022-08-31T06:04:57.929Z,17.69
2022-08-31T06:08:00.930Z,17.86
2022-08-31T06:11:04.534Z,18.13
2022-08-31T06:14:07.281Z,18.33
2022-08-31T06:17:09.543Z,18.57
2022-08-31T06:20:17.047Z,19.03
2022-08-31T06:23:21.200Z,19.24
2022-08-31T06:26:27.061Z,19.05
2022-08-31T06:29:35.533Z,19.07
2022-08-31T06:32:37.859Z,19.11
2022-08-31T06:35:41.586Z,19.25
2022-08-31T06:39:02.852Z,19.34
2022-08-31T06:42:25.375Z,19.33
2022-08-31T06:45:27.488Z,19.59
2022-08-31T06:48:37.167Z,19.49
2022-08-31T06:51:39.479Z,19.44
2022-08-31T06:54:42.025Z,19.67
2022-08-31T06:58:04.395Z,19.95
2022-08-31T07:01:35.201Z,19.91
2022-08-31T07:05:01.493Z,20.30
2022-08-31T07:08:04.418Z,20.61
2022-08-31T07:11:15.859Z,20.83
2022-08-31T07:14:24.514Z,21.08
2022-08-31T07:17:28.337Z,21.65
2022-08-31T07:20:30.955Z,21.67
2022-08-31T07:23:34.845Z,22.25
2022-08-31T07:26:48.844Z,22.01
2022-08-31T07:29:57.915Z,22.22
2022-08-31T07:33:01.154Z,22.25
2022-08-31T07:36:03.910Z,22.39
2022-08-31T07:39:35.640Z,22.47
2022-08-31T07:42:41.701Z,22.59
2022-08-31T07:45:44.417Z,22.58
2022-08-31T07:48:50.859Z,22.64
2022-08-31T07:52:13.018Z,22.47
2022-08-31T07:55:36.569Z,22.57
2022-08-31T07:58:43.959Z,22.56
2022-08-31T08:01:48.822Z,22.93
2022-08-31T08:04:54.220Z,22.76
2022-08-31T08:08:26.198Z,23.10
2022-08-31T08:11:39.736Z,22.84
2022-08-31T08:15:06.377Z,22.98
2022-08-31T08:18:35.962Z,23.14
2022-08-31T08:21:38.617Z,23.88
2022-08-31T08:24:42.600Z,24.17
2022-08-31T08:28:22.825Z,24.44
2022-08-31T08:31:29.235Z,24.43
2022-08-31T08:34:32.872Z,24.03
2022-08-31T08:37:57.922Z,24.21
2022-08-31T08:41:06.918Z,24.18
2022-08-31T08:44:17.811Z,23.73
2022-08-31T08:47:25.031Z,24.09
2022-08-31T08:50:36.765Z,24.26
2022-08-31T08:53:42.336Z,24.35
2022-08-31T08:57:01.645Z,24.59
2022-08-31T09:00:25.549Z,24.61
2022-08-31T09:03:45.650Z,24.40
2022-08-31T09:07:05.325Z,24.63
2022-08-31T09:10:23.921Z,24.47
2022-08-31T09:13:49.542Z,24.79
2022-08-31T09:16:52.267Z,25.04
2022-08-31T09:20:00.638Z,24.95
2022-08-31T09:23:08.828Z,25.76
2022-08-31T09:26:17.128Z,25.76
2022-08-31T09:29:45.661Z,25.98
2022-08-31T09:32:57.928Z,25.45
2022-08-31T09:36:20.264Z,25.59
2022-08-31T09:39:32.843Z,25.20
2022-08-31T09:42:39.224Z,25.31
2022-08-31T09:45:54.339Z,25.08
2022-08-31T09:48:58.868Z,24.84
2022-08-31T09:52:19.178Z,24.77
2022-08-31T09:55:26.036Z,24.64
2022-08-31T09:58:31.700Z,25.03
2022-08-31T10:01:43.499Z,25.31
2022-08-31T10:04:48.403Z,25.79
2022-08-31T10:07:58.668Z,25.58
2022-08-31T10:11:27.719Z,25.48
2022-08-31T10:15:02.804Z,25.34
2022-08-31T10:18:56.379Z,25.32
2022-08-31T10:22:31.313Z,25.97
2022-08-31T10:25:43.443Z,26.46
2022-08-31T10:28:52.945Z,26.45
2022-08-31T10:31:58.478Z,26.73
2022-08-31T10:35:10.724Z,26.26
2022-08-31T10:38:24.254Z,25.58
2022-08-31T10:41:31.303Z,26.51
2022-08-31T10:44:39.851Z,25.32
2022-08-31T10:47:47.277Z,25.53
2022-08-31T10:51:06.761Z,25.17
2022-08-31T10:54:41.014Z,25.55
2022-08-31T10:57:51.806Z,26.41
2022-08-31T11:01:01.280Z,27.27
2022-08-31T11:04:22.396Z,26.25
2022-08-31T11:07:45.856Z,25.79
2022-08-31T11:10:48.094Z,26.01
2022-08-31T11:14:24.539Z,25.99
2022-08-31T11:17:51.252Z,24.65
2022-08-31T11:21:08.223Z,24.84
2022-08-31T11:24:49.319Z,24.54
2022-08-31T11:28:34.367Z,24.47
2022-08-31T11:31:39.547Z,24.64
2022-08-31T11:34:51.816Z,25.03
2022-08-31T11:37:56.226Z,24.75
2022-08-31T11:41:05.235Z,24.61
2022-08-31T11:44:09.641Z,24.48
2022-08-31T11:47:30.358Z,24.44
2022-08-31T11:50:54.844Z,24.51
2022-08-31T11:53:56.921Z,24.69
2022-08-31T11:56:59.820Z,24.73
2022-08-31T12:00:02.443Z,25.11
2022-08-31T12:03:09.846Z,25.28
2022-08-31T12:06:37.656Z,24.99
2022-08-31T12:09:52.319Z,24.36
2022-08-31T12:12:55.381Z,23.97
2022-08-31T12:16:05.779Z,24.52
2022-08-31T12:19:45.763Z,23.99
2022-08-31T12:23:07.045Z,23.84
2022-08-31T12:26:45.161Z,23.99
2022-08-31T12:29:48.197Z,24.19
2022-08-31T12:33:05.932Z,24.19
2022-08-31T12:36:15.342Z,24.29
2022-08-31T12:39:23.995Z,24.45
2022-08-31T12:42:28.809Z,24.54
2022-08-31T12:45:59.686Z,24.59
2022-08-31T12:49:21.863Z,24.46
2022-08-31T12:52:42.988Z,24.57
2022-08-31T12:56:07.445Z,24.65
2022-08-31T12:59:59.802Z,24.75
2022-08-31T13:03:23.816Z,24.52
2022-08-31T13:06:35.295Z,24.30
2022-08-31T13:09:37.314Z,24.33
2022-08-31T13:12:40.052Z,24.28
2022-08-31T13:15:44.137Z,24.41
2022-08-31T13:18:46.797Z,24.19
2022-08-31T13:21:55.146Z,24.58
2022-08-31T13:25:10.943Z,24.21
2022-08-31T13:28:14.334Z,24.68
2022-08-31T13:31:24.265Z,24.63
2022-08-31T13:34:27.102Z,24.33
2022-08-31T13:37:32.990Z,24.52
2022-08-31T13:40:40.681Z,24.50
2022-08-31T13:43:54.110Z,24.32
2022-08-31T13:47:03.196Z,25.05
2022-08-31T13:50:13.327Z,24.59
2022-08-31T13:53:39.975Z,24.23
2022-08-31T13:56:55.045Z,24.52
2022-08-31T14:00:28.188Z,24.35
2022-08-31T14:03:46.641Z,24.19
2022-08-31T14:06:50.921Z,24.13
2022-08-31T14:10:19.484Z,24.73
2022-08-31T14:13:25.303Z,24.36
2022-08-31T14:16:32.799Z,24.23
2022-08-31T14:19:42.511Z,23.70
2022-08-31T14:22:47.093Z,23.41
2022-08-31T14:25:50.789Z,23.53
2022-08-31T14:28:55.706Z,23.14
2022-08-31T14:32:00.116Z,22.85
2022-08-31T14:35:02.831Z,22.46
2022-08-31T14:38:05.567Z,22.55
2022-08-31T14:41:12.454Z,22.59
2022-08-31T14:44:18.669Z,22.70
2022-08-31T14:47:24.502Z,22.57
2022-08-31T14:50:27.459Z,22.40
2022-08-31T14:53:37.439Z,22.33
2022-08-31T14:56:46.043Z,22.36
2022-08-31T14:59:52.347Z,22.21
2022-08-31T15:02:55.185Z,22.17
2022-08-31T15:06:03.566Z,22.47
2022-08-31T15:09:08.536Z,22.42
2022-08-31T15:12:14.711Z,22.52
2022-08-31T15:15:22.216Z,22.68
2022-08-31T15:18:27.416Z,22.97
2022-08-31T15:21:32.441Z,23.16
2022-08-31T15:24:37.469Z,23.40
2022-08-31T15:27:44.482Z,22.95
2022-08-31T15:30:47.355Z,23.01
2022-08-31T15:33:51.834Z,22.73
2022-08-31T15:36:56.857Z,22.77
2022-08-31T15:43:02.452Z,22.62
2022-08-31T15:46:04.713Z,22.27
2022-08-31T15:49:10.070Z,22.06
2022-08-31T15:52:12.922Z,22.14
2022-08-31T15:55:18.135Z,22.10
2022-08-31T15:58:25.293Z,22.01
2022-08-31T16:01:28.295Z,21.70
2022-08-31T16:04:33.507Z,21.81
2022-08-31T16:07:36.440Z,21.74
2022-08-31T16:10:44.892Z,21.38
2022-08-31T16:13:52.172Z,21.25
2022-08-31T16:16:54.285Z,21.43
2022-08-31T16:19:56.528Z,21.44
2022-08-31T16:22:59.385Z,21.26
2022-08-31T16:26:05.654Z,20.81
2022-08-31T16:29:15.203Z,20.75
2022-08-31T16:32:18.125Z,20.71
2022-08-31T16:35:20.906Z,20.61
2022-08-31T16:38:26.336Z,20.68
2022-08-31T16:41:30.563Z,20.25
2022-08-31T16:44:36.579Z,20.39
2022-08-31T16:47:40.871Z,20.35
2022-08-31T16:50:53.728Z,20.33
2022-08-31T16:53:59.662Z,20.34
2022-08-31T16:57:03.806Z,20.17
2022-08-31T17:00:06.989Z,20.28
2022-08-31T17:03:10.047Z,20.14
2022-08-31T17:06:13.913Z,20.15
2022-08-31T17:09:23.634Z,19.67
2022-08-31T17:12:29.123Z,19.81
2022-08-31T17:15:32.368Z,19.68
2022-08-31T17:18:35.438Z,19.59
2022-08-31T17:21:51.339Z,19.45
2022-08-31T17:24:56.480Z,19.32
2022-08-31T17:28:04.472Z,19.16
2022-08-31T17:31:10.723Z,19.18
2022-08-31T17:34:18.051Z,19.27
2022-08-31T17:37:24.258Z,19.17
2022-08-31T17:40:27.360Z,19.11
2022-08-31T17:43:30.215Z,18.96
2022-08-31T17:46:33.430Z,18.95
2022-08-31T17:49:37.850Z,18.88
2022-08-31T17:52:40.705Z,18.93
2022-08-31T17:55:42.992Z,18.93
2022-08-31T17:58:45.298Z,18.84
2022-08-31T18:01:50.380Z,18.80
2022-08-31T18:04:53.029Z,18.76
2022-08-31T18:07:55.656Z,18.64
2022-08-31T18:10:57.919Z,18.48
2022-08-31T18:14:00.350Z,18.33
2022-08-31T18:17:04.204Z,18.32
2022-08-31T18:20:06.808Z,18.33
2022-08-31T18:23:10.232Z,18.34
2022-08-31T18:26:15.643Z,18.31
2022-08-31T18:29:22.615Z,18.24
2022-08-31T18:32:29.410Z,18.25
2022-08-31T18:35:31.454Z,18.13
2022-08-31T18:38:35.117Z,18.10
2022-08-31T18:41:56.509Z,18.11
2022-08-31T18:45:19.439Z,18.11
2022-08-31T18:48:26.433Z,17.96
2022-08-31T18:51:29.735Z,17.96
2022-08-31T18:54:33.583Z,18.02
2022-08-31T18:57:48.431Z,17.92
2022-08-31T19:00:57.737Z,17.99
2022-08-31T19:04:02.157Z,17.96
2022-08-31T19:07:05.850Z,18.01
2022-08-31T19:10:13.297Z,17.99
2022-08-31T19:13:16.771Z,18.03
2022-08-31T19:16:22.019Z,17.98
2022-08-31T19:19:24.656Z,17.95
2022-08-31T19:22:27.274Z,18.02
2022-08-31T19:25:32.299Z,17.83
2022-08-31T19:28:34.406Z,17.82
2022-08-31T19:31:38.828Z,17.93
2022-08-31T19:34:43.353Z,17.70
2022-08-31T19:37:45.540Z,17.63
2022-08-31T19:40:47.489Z,17.55
2022-08-31T19:44:01.942Z,17.68
2022-08-31T19:47:24.065Z,17.59
2022-08-31T19:50:26.669Z,17.57
2022-08-31T19:53:29.263Z,17.48
2022-08-31T19:56:31.647Z,17.53
2022-08-31T19:59:34.404Z,17.53
2022-08-31T20:02:37.277Z,17.47
2022-08-31T20:05:43.714Z,17.45
2022-08-31T20:08:47.049Z,17.50
2022-08-31T20:11:50.180Z,17.52
2022-08-31T20:14:52.666Z,17.55
2022-08-31T20:17:57.790Z,17.46
2022-08-31T20:21:03.352Z,17.37
2022-08-31T20:24:08.051Z,17.35
2022-08-31T20:27:10.777Z,17.50
2022-08-31T20:30:13.949Z,17.44
2022-08-31T20:33:16.172Z,17.35
2022-08-31T20:36:26.977Z,17.30
2022-08-31T20:39:31.455Z,17.29
2022-08-31T20:42:33.557Z,17.19
2022-08-31T20:45:35.699Z,17.30
2022-08-31T20:48:56.440Z,17.25
2022-08-31T20:51:59.950Z,17.15
2022-08-31T20:55:05.303Z,17.18
2022-08-31T20:58:07.443Z,17.18
2022-08-31T21:01:10.868Z,17.06
2022-08-31T21:04:14.904Z,17.08
2022-08-31T21:07:18.094Z,17.06
2022-08-31T21:10:36.155Z,17.04
2022-08-31T21:13:38.707Z,16.99
2022-08-31T21:16:41.038Z,17.04
2022-08-31T21:19:44.932Z,17.15
2022-08-31T21:22:47.114Z,17.15
2022-08-31T21:25:49.034Z,17.15
2022-08-31T21:28:52.694Z,17.15
2022-08-31T21:32:01.290Z,17.16
2022-08-31T21:35:05.800Z,17.21
2022-08-31T21:38:12.296Z,17.24
2022-08-31T21:41:14.274Z,17.23
2022-08-31T21:44:18.199Z,17.17
2022-08-31T21:47:20.224Z,17.12
2022-08-31T21:50:22.174Z,17.19
2022-08-31T21:53:26.035Z,17.25
2022-08-31T21:56:30.377Z,17.21
2022-08-31T21:59:35.663Z,17.17
2022-08-31T22:02:37.605Z,17.08
2022-08-31T22:05:41.772Z,17.09
2022-08-31T22:08:43.822Z,17.00
2022-08-31T22:11:50.771Z,17.05
2022-08-31T22:14:53.538Z,16.95
2022-08-31T22:18:15.458Z,16.92
2022-08-31T22:21:24.064Z,16.84
2022-08-31T22:24:30.678Z,16.80
2022-08-31T22:27:33.767Z,16.90
2022-08-31T22:30:36.425Z,16.85
2022-08-31T22:33:39.760Z,16.90
2022-08-31T22:36:53.272Z,16.87
2022-08-31T22:39:55.778Z,16.94
2022-08-31T22:42:58.675Z,16.88
2022-08-31T22:46:00.837Z,16.94
2022-08-31T22:49:03.477Z,16.89
2022-08-31T22:52:05.861Z,16.98
2022-08-31T22:55:08.905Z,16.91
2022-08-31T22:58:12.678Z,16.90
2022-08-31T23:01:23.378Z,16.92
2022-08-31T23:04:27.701Z,16.90
2022-08-31T23:07:29.608Z,16.86
2022-08-31T23:10:32.626Z,16.85
2022-08-31T23:13:55.815Z,16.83
2022-08-31T23:17:01.437Z,16.76
2022-08-31T23:20:06.904Z,16.77
2022-08-31T23:23:09.021Z,16.61
2022-08-31T23:26:11.654Z,16.62
2022-08-31T23:29:15.556Z,16.62
2022-08-31T23:32:20.923Z,16.66
2022-08-31T23:35:23.368Z,16.70
2022-08-31T23:38:27.450Z,16.69
2022-08-31T23:41:30.159Z,16.63
2022-08-31T23:44:33.865Z,16.72
2022-08-31T23:47:37.004Z,16.79
2022-08-31T23:50:38.796Z,16.75
2022-08-31T23:53:40.637Z,16.86
2022-08-31T23:56:45.925Z,16.89
2022-08-31T23:59:52.230Z,16.94
